INDIA METEOROLOGICAL DEPARTMENT, R.M.C. NEW DELHI
Dated:18 - 10 - 2019
METARS OF ALTERNATE AIRPORTS
Delhi      
VIDP 180330Z 11004KT 1400 R28/P2000 R29/P2000 HZ NSC 27/20 Q1016 BECMG 1500 HZ=
Lucknow    
VILK 180330Z VRB02KT 2500 BR SCT020 SCT100 26/22 Q1016 BECMG 3000=
Jaipur     
VIJP 180330Z 12005KT 2000 FU NSC 27/18 Q1016 NOSIG=
Ahmedabad  
VAAH 180330Z 08003KT 2000 HZ NSC 27/20 Q1014 BECMG 3000=
Udaipur    
VAUD 180330Z 14002KT 6000 NSC 24/17 Q1017 NOSIG=
Mumbai     
VABB 180330Z 13004KT 2500 FU FEW020 BKN100 30/21 Q1012 NOSIG=